sensor_id;sensor_type;location;lat;lon;timestamp;pressure;altitude;pressure_sealevel;temperature;humidity
11710;BME280;5911;51.036;6.972;2023-04-06T00:02:00;100992.84;;;7.09;74.70
11710;BME280;5911;51.036;6.972;2023-04-06T00:04:30;100990.13;;;7.10;71.42
11710;BME280;5911;51.036;6.972;2023-04-06T00:06:58;100991.72;;;7.13;71.50
11710;BME280;5911;51.036;6.972;2023-04-06T00:09:26;100992.94;;;7.07;71.23
11710;BME280;5911;51.036;6.972;2023-04-06T00:11:54;100991.91;;;7.10;71.71
11710;BME280;5911;51.036;6.972;2023-04-06T00:14:22;100988.72;;;7.04;72.02
11710;BME280;5911;51.036;6.972;2023-04-06T00:16:49;100987.03;;;7.03;72.55
11710;BME280;5911;51.036;6.972;2023-04-06T00:19:17;100990.72;;;7.01;72.70
11710;BME280;5911;51.036;6.972;2023-04-06T00:21:47;100988.94;;;7.01;73.03
11710;BME280;5911;51.036;6.972;2023-04-06T00:24:15;100986.66;;;6.95;72.96
11710;BME280;5911;51.036;6.972;2023-04-06T00:26:42;100986.75;;;6.94;70.29
11710;BME280;5911;51.036;6.972;2023-04-06T00:29:10;100985.34;;;6.88;69.64
11710;BME280;5911;51.036;6.972;2023-04-06T00:31:38;100984.88;;;6.96;71.18
11710;BME280;5911;51.036;6.972;2023-04-06T00:34:06;100972.22;;;6.88;70.39
11710;BME280;5911;51.036;6.972;2023-04-06T00:36:34;100977.69;;;6.99;70.22
11710;BME280;5911;51.036;6.972;2023-04-06T00:39:04;100982.34;;;6.94;69.94
11710;BME280;5911;51.036;6.972;2023-04-06T00:41:32;100975.06;;;6.99;71.04
11710;BME280;5911;51.036;6.972;2023-04-06T00:44:00;100975.44;;;6.93;70.59
11710;BME280;5911;51.036;6.972;2023-04-06T00:46:28;100975.44;;;6.93;70.71
11710;BME280;5911;51.036;6.972;2023-04-06T00:48:56;100971.50;;;6.86;70.97
11710;BME280;5911;51.036;6.972;2023-04-06T00:51:24;100961.09;;;6.85;72.23
11710;BME280;5911;51.036;6.972;2023-04-06T00:53:53;100965.03;;;6.78;72.55
11710;BME280;5911;51.036;6.972;2023-04-06T00:56:24;100958.00;;;6.78;70.50
11710;BME280;5911;51.036;6.972;2023-04-06T00:58:53;100961.94;;;6.85;71.68
11710;BME280;5911;51.036;6.972;2023-04-06T01:01:21;100963.25;;;6.78;73.22
11710;BME280;5911;51.036;6.972;2023-04-06T01:03:53;100956.41;;;6.76;73.40
11710;BME280;5911;51.036;6.972;2023-04-06T01:06:22;100946.47;;;6.66;74.03
11710;BME280;5911;51.036;6.972;2023-04-06T01:08:57;100951.47;;;6.71;74.19
11710;BME280;5911;51.036;6.972;2023-04-06T01:11:27;100945.47;;;6.69;72.83
11710;BME280;5911;51.036;6.972;2023-04-06T01:13:55;100946.75;;;6.76;71.49
11710;BME280;5911;51.036;6.972;2023-04-06T01:16:33;100940.03;;;6.72;70.94
11710;BME280;5911;51.036;6.972;2023-04-06T01:19:10;100938.53;;;6.68;70.60
11710;BME280;5911;51.036;6.972;2023-04-06T01:21:43;100930.09;;;6.63;74.78
11710;BME280;5911;51.036;6.972;2023-04-06T01:24:25;100928.56;;;6.59;74.54
11710;BME280;5911;51.036;6.972;2023-04-06T01:27:02;100917.25;;;6.58;75.40
11710;BME280;5911;51.036;6.972;2023-04-06T01:29:54;100928.03;;;6.54;73.50
11710;BME280;5911;51.036;6.972;2023-04-06T01:32:39;100910.63;;;6.53;71.61
11710;BME280;5911;51.036;6.972;2023-04-06T01:35:10;100905.38;;;6.39;72.40
11710;BME280;5911;51.036;6.972;2023-04-06T01:37:45;100920.44;;;6.49;73.46
11710;BME280;5911;51.036;6.972;2023-04-06T01:40:23;100908.63;;;6.42;73.66
11710;BME280;5911;51.036;6.972;2023-04-06T01:42:51;100912.94;;;6.43;74.68
11710;BME280;5911;51.036;6.972;2023-04-06T01:45:28;100914.34;;;6.49;73.52
11710;BME280;5911;51.036;6.972;2023-04-06T01:48:03;100905.16;;;6.42;72.64
11710;BME280;5911;51.036;6.972;2023-04-06T01:50:30;100911.63;;;6.36;73.62
11710;BME280;5911;51.036;6.972;2023-04-06T01:52:58;100899.72;;;6.30;72.59
11710;BME280;5911;51.036;6.972;2023-04-06T01:55:30;100902.84;;;6.37;74.00
11710;BME280;5911;51.036;6.972;2023-04-06T01:58:24;100904.69;;;6.35;72.63
11710;BME280;5911;51.036;6.972;2023-04-06T02:00:52;100900.47;;;6.32;73.01
11710;BME280;5911;51.036;6.972;2023-04-06T02:03:21;100906.38;;;6.36;73.40
11710;BME280;5911;51.036;6.972;2023-04-06T02:05:57;100892.97;;;6.26;73.88
11710;BME280;5911;51.036;6.972;2023-04-06T02:08:32;100895.41;;;6.29;75.17
11710;BME280;5911;51.036;6.972;2023-04-06T02:11:02;100897.09;;;6.30;74.06
11710;BME280;5911;51.036;6.972;2023-04-06T02:13:36;100902.91;;;6.21;74.60
11710;BME280;5911;51.036;6.972;2023-04-06T02:16:05;100896.63;;;6.10;73.78
11710;BME280;5911;51.036;6.972;2023-04-06T02:18:33;100892.31;;;6.09;74.91
11710;BME280;5911;51.036;6.972;2023-04-06T02:21:01;100891.63;;;6.05;76.29
11710;BME280;5911;51.036;6.972;2023-04-06T02:23:29;100895.94;;;6.06;77.01
11710;BME280;5911;51.036;6.972;2023-04-06T02:25:57;100899.41;;;6.07;76.69
11710;BME280;5911;51.036;6.972;2023-04-06T02:28:26;100890.06;;;6.17;75.54
11710;BME280;5911;51.036;6.972;2023-04-06T02:30:54;100874.25;;;6.04;75.85
11710;BME280;5911;51.036;6.972;2023-04-06T02:33:25;100892.41;;;6.21;75.39
11710;BME280;5911;51.036;6.972;2023-04-06T02:35:53;100882.38;;;6.14;74.99
11710;BME280;5911;51.036;6.972;2023-04-06T02:38:22;100883.81;;;6.19;74.99
11710;BME280;5911;51.036;6.972;2023-04-06T02:40:51;100882.97;;;6.19;74.79
11710;BME280;5911;51.036;6.972;2023-04-06T02:43:25;100890.25;;;6.14;74.62
11710;BME280;5911;51.036;6.972;2023-04-06T02:46:13;100884.72;;;6.04;75.24
11710;BME280;5911;51.036;6.972;2023-04-06T02:48:42;100885.25;;;5.95;76.13
11710;BME280;5911;51.036;6.972;2023-04-06T02:51:09;100887.13;;;5.93;75.88
11710;BME280;5911;51.036;6.972;2023-04-06T02:53:40;100883.75;;;5.91;76.25
11710;BME280;5911;51.036;6.972;2023-04-06T02:56:08;100876.38;;;5.82;75.93
11710;BME280;5911;51.036;6.972;2023-04-06T02:58:45;100876.38;;;5.82;76.70
11710;BME280;5911;51.036;6.972;2023-04-06T03:01:13;100871.59;;;5.74;75.34
11710;BME280;5911;51.036;6.972;2023-04-06T03:03:42;100872.44;;;5.75;76.01
11710;BME280;5911;51.036;6.972;2023-04-06T03:06:17;100871.59;;;5.74;76.92
11710;BME280;5911;51.036;6.972;2023-04-06T03:08:48;100881.22;;;5.74;76.91
11710;BME280;5911;51.036;6.972;2023-04-06T03:11:16;100873.44;;;5.72;76.71
11710;BME280;5911;51.036;6.972;2023-04-06T03:13:45;100875.97;;;5.74;77.43
11710;BME280;5911;51.036;6.972;2023-04-06T03:16:13;100881.03;;;5.77;77.54
11710;BME280;5911;51.036;6.972;2023-04-06T03:18:42;100874.50;;;5.84;77.35
11710;BME280;5911;51.036;6.972;2023-04-06T03:21:12;100881.72;;;5.80;77.03
11710;BME280;5911;51.036;6.972;2023-04-06T03:23:50;100868.22;;;5.72;77.88
11710;BME280;5911;51.036;6.972;2023-04-06T03:26:18;100872.59;;;5.72;78.35
11710;BME280;5911;51.036;6.972;2023-04-06T03:28:47;100871.75;;;5.71;79.32
11710;BME280;5911;51.036;6.972;2023-04-06T03:31:16;100867.97;;;5.77;77.06
11710;BME280;5911;51.036;6.972;2023-04-06T03:33:55;100872.34;;;5.76;78.84
11710;BME280;5911;51.036;6.972;2023-04-06T03:36:30;100864.66;;;5.73;78.74
11710;BME280;5911;51.036;6.972;2023-04-06T03:38:59;100873.38;;;5.74;78.70
11710;BME280;5911;51.036;6.972;2023-04-06T03:41:29;100867.38;;;5.72;78.56
11710;BME280;5911;51.036;6.972;2023-04-06T03:44:25;100876.25;;;5.69;79.82
11710;BME280;5911;51.036;6.972;2023-04-06T03:46:53;100876.81;;;5.74;78.27
11710;BME280;5911;51.036;6.972;2023-04-06T03:49:21;100878.19;;;5.65;77.24
11710;BME280;5911;51.036;6.972;2023-04-06T03:51:52;100874.56;;;5.68;78.99
11710;BME280;5911;51.036;6.972;2023-04-06T03:54:20;100868.34;;;5.55;77.58
11710;BME280;5911;51.036;6.972;2023-04-06T03:56:48;100873.16;;;5.62;78.43
11710;BME280;5911;51.036;6.972;2023-04-06T03:59:17;100871.28;;;5.64;78.05
11710;BME280;5911;51.036;6.972;2023-04-06T04:01:46;100875.16;;;5.57;77.50
11710;BME280;5911;51.036;6.972;2023-04-06T04:04:14;100872.81;;;5.53;76.42
11710;BME280;5911;51.036;6.972;2023-04-06T04:06:42;100864.31;;;5.49;76.75
11710;BME280;5911;51.036;6.972;2023-04-06T04:09:10;100875.88;;;5.45;76.23
11710;BME280;5911;51.036;6.972;2023-04-06T04:11:38;100870.72;;;5.44;77.08
11710;BME280;5911;51.036;6.972;2023-04-06T04:14:06;100865.31;;;5.47;76.79
11710;BME280;5911;51.036;6.972;2023-04-06T04:16:34;100873.16;;;5.47;77.44
11710;BME280;5911;51.036;6.972;2023-04-06T04:19:03;100872.50;;;5.43;78.34
11710;BME280;5911;51.036;6.972;2023-04-06T04:21:31;100865.41;;;5.29;76.72
11710;BME280;5911;51.036;6.972;2023-04-06T04:24:07;100868.63;;;5.35;76.39
11710;BME280;5911;51.036;6.972;2023-04-06T04:26:37;100871.91;;;5.38;77.44
11710;BME280;5911;51.036;6.972;2023-04-06T04:29:05;100870.81;;;5.42;78.82
11710;BME280;5911;51.036;6.972;2023-04-06T04:31:35;100868.94;;;5.44;78.77
11710;BME280;5911;51.036;6.972;2023-04-06T04:34:11;100870.81;;;5.42;79.06
11710;BME280;5911;51.036;6.972;2023-04-06T04:36:38;100868.34;;;5.39;77.55
11710;BME280;5911;51.036;6.972;2023-04-06T04:39:11;100867.44;;;5.40;79.18
11710;BME280;5911;51.036;6.972;2023-04-06T04:41:44;100840.28;;;5.27;78.39
11710;BME280;5911;51.036;6.972;2023-04-06T04:44:12;100869.13;;;5.41;76.04
11710;BME280;5911;51.036;6.972;2023-04-06T04:46:41;100882.53;;;5.35;77.21
11710;BME280;5911;51.036;6.972;2023-04-06T04:49:12;100873.03;;;5.34;75.76
11710;BME280;5911;51.036;6.972;2023-04-06T04:51:41;100877.72;;;5.27;76.37
11710;BME280;5911;51.036;6.972;2023-04-06T04:54:16;100872.59;;;5.26;78.03
11710;BME280;5911;51.036;6.972;2023-04-06T04:56:44;100880.59;;;5.23;78.28
11710;BME280;5911;51.036;6.972;2023-04-06T04:59:32;100877.41;;;5.18;78.31
11710;BME280;5911;51.036;6.972;2023-04-06T05:02:08;100873.03;;;5.18;77.85
11710;BME280;5911;51.036;6.972;2023-04-06T05:04:47;100870.13;;;5.23;79.18
11710;BME280;5911;51.036;6.972;2023-04-06T05:07:20;100870.28;;;5.20;77.33
11710;BME280;5911;51.036;6.972;2023-04-06T05:09:50;100878.66;;;5.26;78.94
11710;BME280;5911;51.036;6.972;2023-04-06T05:12:20;100876.72;;;5.30;77.86
11710;BME280;5911;51.036;6.972;2023-04-06T05:14:59;100864.75;;;5.26;79.82
11710;BME280;5911;51.036;6.972;2023-04-06T05:17:27;100847.81;;;5.17;79.36
11710;BME280;5911;51.036;6.972;2023-04-06T05:19:57;100881.97;;;5.30;76.03
11710;BME280;5911;51.036;6.972;2023-04-06T05:22:26;100873.34;;;5.44;76.63
11710;BME280;5911;51.036;6.972;2023-04-06T05:25:04;100867.34;;;5.42;76.98
11710;BME280;5911;51.036;6.972;2023-04-06T05:27:32;100874.84;;;5.48;75.97
11710;BME280;5911;51.036;6.972;2023-04-06T05:30:07;100872.25;;;5.48;77.65
11710;BME280;5911;51.036;6.972;2023-04-06T05:32:44;100878.03;;;5.53;77.07
11710;BME280;5911;51.036;6.972;2023-04-06T05:35:15;100872.47;;;5.59;76.29
11710;BME280;5911;51.036;6.972;2023-04-06T05:37:47;100882.59;;;5.65;77.15
11710;BME280;5911;51.036;6.972;2023-04-06T05:40:16;100872.94;;;5.65;77.10
11710;BME280;5911;51.036;6.972;2023-04-06T05:42:45;100875.47;;;5.67;75.94
11710;BME280;5911;51.036;6.972;2023-04-06T05:45:15;100874.22;;;5.74;74.66
11710;BME280;5911;51.036;6.972;2023-04-06T05:47:50;100876.81;;;5.74;73.33
11710;BME280;5911;51.036;6.972;2023-04-06T05:50:24;100849.09;;;5.56;75.85
11710;BME280;5911;51.036;6.972;2023-04-06T05:52:53;100891.34;;;5.80;74.96
11710;BME280;5911;51.036;6.972;2023-04-06T05:55:23;100878.25;;;5.80;72.05
11710;BME280;5911;51.036;6.972;2023-04-06T05:58:04;100889.13;;;5.88;71.60
11710;BME280;5911;51.036;6.972;2023-04-06T06:00:32;100891.69;;;5.89;73.49
11710;BME280;5911;51.036;6.972;2023-04-06T06:03:04;100892.75;;;5.85;73.67
11710;BME280;5911;51.036;6.972;2023-04-06T06:05:35;100889.91;;;5.90;74.87
11710;BME280;5911;51.036;6.972;2023-04-06T06:08:11;100884.28;;;5.96;74.02
11710;BME280;5911;51.036;6.972;2023-04-06T06:10:39;100886.75;;;5.99;74.82
11710;BME280;5911;51.036;6.972;2023-04-06T06:13:10;100880.28;;;5.90;70.59
11710;BME280;5911;51.036;6.972;2023-04-06T06:15:38;100884.13;;;5.99;70.42
11710;BME280;5911;51.036;6.972;2023-04-06T06:18:06;100874.78;;;5.95;73.24
11710;BME280;5911;51.036;6.972;2023-04-06T06:20:36;100871.63;;;6.04;71.98
11710;BME280;5911;51.036;6.972;2023-04-06T06:23:05;100874.91;;;6.08;73.63
11710;BME280;5911;51.036;6.972;2023-04-06T06:25:36;100862.84;;;6.05;71.15
11710;BME280;5911;51.036;6.972;2023-04-06T06:28:08;100878.16;;;6.11;69.49
11710;BME280;5911;51.036;6.972;2023-04-06T06:30:39;100876.69;;;6.07;66.83
11710;BME280;5911;51.036;6.972;2023-04-06T06:33:08;100879.59;;;6.17;68.71
11710;BME280;5911;51.036;6.972;2023-04-06T06:35:38;100883.63;;;6.22;67.54
11710;BME280;5911;51.036;6.972;2023-04-06T06:38:06;100886.25;;;6.22;64.69
11710;BME280;5911;51.036;6.972;2023-04-06T06:40:34;100886.34;;;6.21;64.28
11710;BME280;5911;51.036;6.972;2023-04-06T06:43:03;100882.22;;;6.31;67.08
11710;BME280;5911;51.036;6.972;2023-04-06T06:45:35;100882.06;;;6.34;65.68
11710;BME280;5911;51.036;6.972;2023-04-06T06:48:03;100885.25;;;6.39;66.64
11710;BME280;5911;51.036;6.972;2023-04-06T06:50:31;100886.47;;;6.48;68.82
11710;BME280;5911;51.036;6.972;2023-04-06T06:53:00;100881.03;;;6.51;67.32
11710;BME280;5911;51.036;6.972;2023-04-06T06:55:31;100888.63;;;6.41;64.14
11710;BME280;5911;51.036;6.972;2023-04-06T06:57:59;100879.09;;;6.54;63.40
11710;BME280;5911;51.036;6.972;2023-04-06T07:00:28;100872.44;;;6.63;64.62
11710;BME280;5911;51.036;6.972;2023-04-06T07:02:56;100876.66;;;6.65;63.49
11710;BME280;5911;51.036;6.972;2023-04-06T07:05:24;100875.44;;;6.71;62.77
11710;BME280;5911;51.036;6.972;2023-04-06T07:07:57;100867.09;;;6.79;63.54
11710;BME280;5911;51.036;6.972;2023-04-06T07:10:26;100867.56;;;6.85;62.57
11710;BME280;5911;51.036;6.972;2023-04-06T07:12:54;100870.63;;;6.92;63.10
11710;BME280;5911;51.036;6.972;2023-04-06T07:15:22;100871.00;;;7.00;63.46
11710;BME280;5911;51.036;6.972;2023-04-06T07:17:51;100879.03;;;7.11;63.28
11710;BME280;5911;51.036;6.972;2023-04-06T07:20:21;100865.41;;;7.19;62.58
11710;BME280;5911;51.036;6.972;2023-04-06T07:22:49;100863.16;;;7.27;63.23
11710;BME280;5911;51.036;6.972;2023-04-06T07:25:17;100853.75;;;7.37;61.94
11710;BME280;5911;51.036;6.972;2023-04-06T07:27:46;100855.38;;;7.52;62.18
11710;BME280;5911;51.036;6.972;2023-04-06T07:30:15;100862.69;;;7.61;61.13
11710;BME280;5911;51.036;6.972;2023-04-06T07:32:44;100860.28;;;7.71;60.31
11710;BME280;5911;51.036;6.972;2023-04-06T07:35:16;100867.78;;;7.77;59.46
11710;BME280;5911;51.036;6.972;2023-04-06T07:37:44;100864.22;;;7.91;59.14
11710;BME280;5911;51.036;6.972;2023-04-06T07:40:12;100835.94;;;7.82;58.52
11710;BME280;5911;51.036;6.972;2023-04-06T07:42:44;100869.72;;;8.13;60.63
11710;BME280;5911;51.036;6.972;2023-04-06T07:45:13;100865.09;;;8.17;58.63
11710;BME280;5911;51.036;6.972;2023-04-06T07:47:43;100865.72;;;8.20;59.30
11710;BME280;5911;51.036;6.972;2023-04-06T07:50:11;100860.03;;;8.26;59.59
11710;BME280;5911;51.036;6.972;2023-04-06T07:52:39;100871.09;;;8.31;58.58
11710;BME280;5911;51.036;6.972;2023-04-06T07:55:08;100862.84;;;8.37;58.32
11710;BME280;5911;51.036;6.972;2023-04-06T07:57:36;100863.13;;;8.45;58.66
11710;BME280;5911;51.036;6.972;2023-04-06T08:00:05;100862.00;;;8.50;57.89
11710;BME280;5911;51.036;6.972;2023-04-06T08:02:41;100863.66;;;8.51;58.00
11710;BME280;5911;51.036;6.972;2023-04-06T08:05:10;100859.88;;;8.55;57.81
11710;BME280;5911;51.036;6.972;2023-04-06T08:07:37;100857.25;;;8.55;56.18
11710;BME280;5911;51.036;6.972;2023-04-06T08:10:06;100848.28;;;8.57;58.03
11710;BME280;5911;51.036;6.972;2023-04-06T08:12:34;100858.28;;;8.65;57.49
11710;BME280;5911;51.036;6.972;2023-04-06T08:15:03;100856.69;;;8.75;57.70
11710;BME280;5911;51.036;6.972;2023-04-06T08:17:31;100856.19;;;8.70;57.00
11710;BME280;5911;51.036;6.972;2023-04-06T08:20:02;100851.44;;;8.75;56.34
11710;BME280;5911;51.036;6.972;2023-04-06T08:22:30;100850.06;;;8.82;57.13
11710;BME280;5911;51.036;6.972;2023-04-06T08:24:58;100856.47;;;8.91;56.99
11710;BME280;5911;51.036;6.972;2023-04-06T08:27:26;100847.19;;;8.98;56.53
11710;BME280;5911;51.036;6.972;2023-04-06T08:29:54;100853.78;;;9.03;55.70
11710;BME280;5911;51.036;6.972;2023-04-06T08:32:22;100851.16;;;9.03;55.47
11710;BME280;5911;51.036;6.972;2023-04-06T08:34:52;100844.19;;;9.15;55.30
11710;BME280;5911;51.036;6.972;2023-04-06T08:37:22;100839.03;;;9.13;54.30
11710;BME280;5911;51.036;6.972;2023-04-06T08:39:50;100838.81;;;9.16;54.83
11710;BME280;5911;51.036;6.972;2023-04-06T08:42:19;100850.56;;;9.24;54.26
11710;BME280;5911;51.036;6.972;2023-04-06T08:44:48;100850.16;;;9.30;54.22
11710;BME280;5911;51.036;6.972;2023-04-06T08:47:18;100839.88;;;9.38;56.02
11710;BME280;5911;51.036;6.972;2023-04-06T08:49:50;100836.19;;;9.40;56.36
11710;BME280;5911;51.036;6.972;2023-04-06T08:52:19;100838.50;;;9.45;55.82
11710;BME280;5911;51.036;6.972;2023-04-06T08:54:48;100829.13;;;9.41;55.88
11710;BME280;5911;51.036;6.972;2023-04-06T08:57:16;100838.97;;;9.50;55.13
11710;BME280;5911;51.036;6.972;2023-04-06T08:59:46;100833.38;;;9.55;55.09
11710;BME280;5911;51.036;6.972;2023-04-06T09:02:17;100835.31;;;9.64;55.68
11710;BME280;5911;51.036;6.972;2023-04-06T09:04:46;100841.38;;;9.77;55.54
11710;BME280;5911;51.036;6.972;2023-04-06T09:07:15;100799.06;;;9.67;54.65
11710;BME280;5911;51.036;6.972;2023-04-06T09:09:44;100829.22;;;9.98;54.13
11710;BME280;5911;51.036;6.972;2023-04-06T09:12:27;100811.09;;;9.94;53.36
11710;BME280;5911;51.036;6.972;2023-04-06T09:14:56;100830.25;;;10.19;54.70
11710;BME280;5911;51.036;6.972;2023-04-06T09:17:25;100823.38;;;10.17;55.26
11710;BME280;5911;51.036;6.972;2023-04-06T09:19:54;100797.50;;;10.11;53.89
11710;BME280;5911;51.036;6.972;2023-04-06T09:22:22;100834.97;;;10.49;55.21
11710;BME280;5911;51.036;6.972;2023-04-06T09:24:52;100822.00;;;10.57;54.46
11710;BME280;5911;51.036;6.972;2023-04-06T09:27:31;100822.25;;;10.77;55.46
11710;BME280;5911;51.036;6.972;2023-04-06T09:30:04;100802.69;;;10.79;53.60
11710;BME280;5911;51.036;6.972;2023-04-06T09:32:32;100821.25;;;10.89;52.06
11710;BME280;5911;51.036;6.972;2023-04-06T09:35:11;100826.06;;;10.95;52.54
11710;BME280;5911;51.036;6.972;2023-04-06T09:37:39;100811.50;;;11.01;52.94
11710;BME280;5911;51.036;6.972;2023-04-06T09:40:07;100814.88;;;11.14;54.19
11710;BME280;5911;51.036;6.972;2023-04-06T09:42:37;100815.91;;;11.22;53.96
11710;BME280;5911;51.036;6.972;2023-04-06T09:45:06;100813.03;;;11.25;52.80
11710;BME280;5911;51.036;6.972;2023-04-06T09:47:35;100810.84;;;11.31;53.03
11710;BME280;5911;51.036;6.972;2023-04-06T09:50:05;100811.81;;;11.30;51.17
11710;BME280;5911;51.036;6.972;2023-04-06T09:52:38;100810.34;;;11.37;52.52
11710;BME280;5911;51.036;6.972;2023-04-06T09:55:09;100814.88;;;11.46;52.42
11710;BME280;5911;51.036;6.972;2023-04-06T09:57:44;100813.53;;;11.51;52.28
11710;BME280;5911;51.036;6.972;2023-04-06T10:00:17;100813.28;;;11.54;51.32
11710;BME280;5911;51.036;6.972;2023-04-06T10:02:50;100815.16;;;11.63;52.07
11710;BME280;5911;51.036;6.972;2023-04-06T10:05:24;100811.28;;;11.79;51.75
11710;BME280;5911;51.036;6.972;2023-04-06T10:07:57;100813.88;;;11.90;53.65
11710;BME280;5911;51.036;6.972;2023-04-06T10:10:28;100804.13;;;11.90;52.65
11710;BME280;5911;51.036;6.972;2023-04-06T10:12:58;100816.63;;;12.09;53.99
11710;BME280;5911;51.036;6.972;2023-04-06T10:15:27;100812.63;;;12.15;52.40
11710;BME280;5911;51.036;6.972;2023-04-06T10:17:56;100795.34;;;12.11;51.05
11710;BME280;5911;51.036;6.972;2023-04-06T10:20:28;100812.16;;;12.30;51.44
11710;BME280;5911;51.036;6.972;2023-04-06T10:23:01;100815.28;;;12.45;50.51
11710;BME280;5911;51.036;6.972;2023-04-06T10:25:29;100809.97;;;12.66;51.00
11710;BME280;5911;51.036;6.972;2023-04-06T10:28:05;100813.06;;;12.81;50.65
11710;BME280;5911;51.036;6.972;2023-04-06T10:30:33;100812.69;;;12.95;50.52
11710;BME280;5911;51.036;6.972;2023-04-06T10:33:12;100823.03;;;12.98;49.50
11710;BME280;5911;51.036;6.972;2023-04-06T10:35:43;100796.09;;;12.93;50.50
11710;BME280;5911;51.036;6.972;2023-04-06T10:38:12;100808.50;;;13.02;49.77
11710;BME280;5911;51.036;6.972;2023-04-06T10:40:42;100804.38;;;13.19;51.64
11710;BME280;5911;51.036;6.972;2023-04-06T10:43:17;100806.91;;;13.20;49.62
11710;BME280;5911;51.036;6.972;2023-04-06T10:45:54;100804.41;;;13.48;50.61
11710;BME280;5911;51.036;6.972;2023-04-06T10:48:23;100805.53;;;13.55;50.48
11710;BME280;5911;51.036;6.972;2023-04-06T10:50:52;100794.38;;;13.51;49.65
11710;BME280;5911;51.036;6.972;2023-04-06T10:53:21;100799.41;;;13.54;48.99
11710;BME280;5911;51.036;6.972;2023-04-06T10:55:50;100795.63;;;13.47;47.85
11710;BME280;5911;51.036;6.972;2023-04-06T10:58:20;100791.16;;;13.48;48.87
11710;BME280;5911;51.036;6.972;2023-04-06T11:00:48;100793.94;;;13.65;49.39
11710;BME280;5911;51.036;6.972;2023-04-06T11:03:18;100784.19;;;13.66;49.34
11710;BME280;5911;51.036;6.972;2023-04-06T11:05:46;100790.19;;;13.68;49.73
11710;BME280;5911;51.036;6.972;2023-04-06T11:08:25;100788.66;;;13.56;49.04
11710;BME280;5911;51.036;6.972;2023-04-06T11:11:04;100785.75;;;13.59;49.60
11710;BME280;5911;51.036;6.972;2023-04-06T11:13:38;100785.44;;;13.62;49.27
11710;BME280;5911;51.036;6.972;2023-04-06T11:16:07;100785.16;;;13.65;48.21
11710;BME280;5911;51.036;6.972;2023-04-06T11:18:47;100789.06;;;13.70;49.25
11710;BME280;5911;51.036;6.972;2023-04-06T11:21:15;100795.50;;;13.68;48.44
11710;BME280;5911;51.036;6.972;2023-04-06T11:23:43;100787.97;;;13.54;48.54
11710;BME280;5911;51.036;6.972;2023-04-06T11:26:11;100786.28;;;13.53;48.61
11710;BME280;5911;51.036;6.972;2023-04-06T11:28:41;100787.66;;;13.47;49.09
11710;BME280;5911;51.036;6.972;2023-04-06T11:31:10;100782.38;;;13.37;48.92
11710;BME280;5911;51.036;6.972;2023-04-06T11:33:38;100774.97;;;13.31;49.39
11710;BME280;5911;51.036;6.972;2023-04-06T11:36:06;100784.06;;;13.38;49.02
11710;BME280;5911;51.036;6.972;2023-04-06T11:38:38;100782.09;;;13.31;49.32
11710;BME280;5911;51.036;6.972;2023-04-06T11:41:07;100778.91;;;13.27;49.17
11710;BME280;5911;51.036;6.972;2023-04-06T11:43:34;100773.16;;;13.32;49.27
11710;BME280;5911;51.036;6.972;2023-04-06T11:46:04;100773.72;;;13.35;47.85
11710;BME280;5911;51.036;6.972;2023-04-06T11:48:44;100764.25;;;13.43;48.58
11710;BME280;5911;51.036;6.972;2023-04-06T11:51:12;100758.81;;;13.44;51.20
11710;BME280;5911;51.036;6.972;2023-04-06T11:53:49;100768.72;;;13.52;50.23
11710;BME280;5911;51.036;6.972;2023-04-06T11:56:27;100764.94;;;13.45;49.39
11710;BME280;5911;51.036;6.972;2023-04-06T11:58:57;100771.22;;;13.34;50.00
11710;BME280;5911;51.036;6.972;2023-04-06T12:01:28;100768.00;;;13.30;49.18
11710;BME280;5911;51.036;6.972;2023-04-06T12:04:02;100766.50;;;13.37;49.05
11710;BME280;5911;51.036;6.972;2023-04-06T12:06:30;100761.88;;;13.40;48.54
11710;BME280;5911;51.036;6.972;2023-04-06T12:08:58;100760.75;;;13.52;48.68
11710;BME280;5911;51.036;6.972;2023-04-06T12:11:26;100770.94;;;13.66;48.92
11710;BME280;5911;51.036;6.972;2023-04-06T12:13:54;100765.06;;;13.72;48.70
11710;BME280;5911;51.036;6.972;2023-04-06T12:16:22;100755.75;;;13.58;47.90
11710;BME280;5911;51.036;6.972;2023-04-06T12:18:52;100764.13;;;13.54;49.38
11710;BME280;5911;51.036;6.972;2023-04-06T12:21:20;100768.00;;;13.50;48.21
11710;BME280;5911;51.036;6.972;2023-04-06T12:23:48;100765.94;;;13.44;48.12
11710;BME280;5911;51.036;6.972;2023-04-06T12:26:16;100759.81;;;13.43;48.34
11710;BME280;5911;51.036;6.972;2023-04-06T12:28:43;100760.34;;;13.47;48.14
11710;BME280;5911;51.036;6.972;2023-04-06T12:31:14;100745.59;;;13.44;49.33
11710;BME280;5911;51.036;6.972;2023-04-06T12:33:43;100760.50;;;13.55;48.68
11710;BME280;5911;51.036;6.972;2023-04-06T12:36:13;100766.75;;;13.54;48.22
11710;BME280;5911;51.036;6.972;2023-04-06T12:38:42;100762.00;;;13.48;49.46
11710;BME280;5911;51.036;6.972;2023-04-06T12:41:12;100760.91;;;13.41;49.83
11710;BME280;5911;51.036;6.972;2023-04-06T12:43:42;100763.97;;;13.36;50.51
11710;BME280;5911;51.036;6.972;2023-04-06T12:46:10;100765.09;;;13.43;52.08
11710;BME280;5911;51.036;6.972;2023-04-06T12:48:38;100763.69;;;13.39;51.19
11710;BME280;5911;51.036;6.972;2023-04-06T12:51:07;100757.81;;;13.45;50.53
11710;BME280;5911;51.036;6.972;2023-04-06T12:53:36;100758.94;;;13.52;51.31
11710;BME280;5911;51.036;6.972;2023-04-06T12:56:13;100764.25;;;13.52;51.51
11710;BME280;5911;51.036;6.972;2023-04-06T12:58:41;100757.69;;;13.56;52.05
11710;BME280;5911;51.036;6.972;2023-04-06T13:01:09;100761.59;;;13.62;50.79
11710;BME280;5911;51.036;6.972;2023-04-06T13:03:39;100758.94;;;13.62;51.62
11710;BME280;5911;51.036;6.972;2023-04-06T13:06:07;100762.97;;;13.66;51.47
11710;BME280;5911;51.036;6.972;2023-04-06T13:08:38;100767.84;;;13.61;49.70
11710;BME280;5911;51.036;6.972;2023-04-06T13:11:06;100740.41;;;13.43;50.75
11710;BME280;5911;51.036;6.972;2023-04-06T13:13:36;100754.91;;;13.38;49.68
11710;BME280;5911;51.036;6.972;2023-04-06T13:16:06;100750.28;;;13.31;51.28
11710;BME280;5911;51.036;6.972;2023-04-06T13:18:35;100750.03;;;13.24;51.20
11710;BME280;5911;51.036;6.972;2023-04-06T13:21:06;100752.25;;;13.19;51.67
11710;BME280;5911;51.036;6.972;2023-04-06T13:23:34;100757.28;;;13.22;51.60
11710;BME280;5911;51.036;6.972;2023-04-06T13:26:05;100755.34;;;13.24;51.33